Time;durP1;ratioP1;P1;durP2;ratioP2;P2;SDS_P1;SDS_P2;PMS_P1;PMS_P2;Temp;Humidity;BMP_temperature;BMP_pressure;BME280_temperature;BME280_humidity;BME280_pressure;Samples;Min_cycle;Max_cycle;Signal;HPM_P1;HPM_P2
2022/08/31 00:06:10;;;;;;;11.32;6.95;;;25.10;99.90;;;;;;5030301;28;20369;-74
2022/08/31 00:08:38;;;;;;;8.77;6.40;;;25.00;99.90;;;;;;5038220;28;20056;-74
2022/08/31 00:11:08;;;;;;;8.45;5.95;;;25.00;99.90;;;;;;5034025;28;20053;-74
2022/08/31 00:13:36;;;;;;;9.75;7.38;;;25.00;99.90;;;;;;5028910;28;20158;-74
2022/08/31 00:16:04;;;;;;;13.13;6.45;;;24.90;99.90;;;;;;5030275;28;20120;-74
2022/08/31 00:18:32;;;;;;;9.23;5.88;;;24.90;99.90;;;;;;4999728;28;20069;-75
2022/08/31 00:20:59;;;;;;;7.93;5.55;;;24.90;99.90;;;;;;5030274;28;20072;-74
2022/08/31 00:23:27;;;;;;;8.55;6.18;;;24.80;99.90;;;;;;5013136;28;20137;-75
2022/08/31 00:25:55;;;;;;;9.75;6.57;;;24.80;99.90;;;;;;5018030;28;20140;-74
2022/08/31 00:28:23;;;;;;;9.27;6.25;;;24.80;99.90;;;;;;5063862;28;20380;-74
2022/08/31 00:30:51;;;;;;;9.10;7.13;;;24.80;99.90;;;;;;5033536;28;20191;-74
2022/08/31 00:33:19;;;;;;;10.35;6.55;;;24.70;99.90;;;;;;5043935;28;20045;-74
2022/08/31 00:35:47;;;;;;;9.57;6.05;;;24.70;99.90;;;;;;5029311;28;20496;-74
2022/08/31 00:38:16;;;;;;;9.60;6.50;;;24.70;99.90;;;;;;4997038;28;20068;-75
2022/08/31 00:40:45;;;;;;;9.10;6.20;;;24.70;99.90;;;;;;5013537;28;20146;-74
2022/08/31 00:43:52;;;;;;;8.98;5.80;;;24.70;99.90;;;;;;5013257;28;20104;-75
2022/08/31 00:46:26;;;;;;;8.95;5.78;;;24.60;99.90;;;;;;5012892;28;20048;-74
2022/08/31 00:48:53;;;;;;;8.15;6.40;;;24.60;99.90;;;;;;5028802;28;20057;-75
2022/08/31 00:51:22;;;;;;;8.68;4.97;;;24.70;99.90;;;;;;5013202;28;20611;-74
2022/08/31 00:53:50;;;;;;;8.00;4.97;;;24.70;99.90;;;;;;5035897;28;20065;-73
2022/08/31 00:56:19;;;;;;;8.55;6.00;;;24.70;99.90;;;;;;5030058;28;20068;-74
2022/08/31 00:58:49;;;;;;;10.52;5.53;;;24.70;99.90;;;;;;5030299;28;20044;-74
2022/08/31 01:01:19;;;;;;;9.07;5.60;;;24.70;99.90;;;;;;4997842;28;20061;-74
2022/08/31 01:03:47;;;;;;;7.13;4.45;;;24.70;99.90;;;;;;5013531;28;20061;-74
2022/08/31 01:06:16;;;;;;;9.93;6.05;;;24.70;99.90;;;;;;5030161;28;20664;-74
2022/08/31 01:08:45;;;;;;;8.57;5.57;;;24.70;99.90;;;;;;5013906;28;20052;-74
2022/08/31 01:11:14;;;;;;;11.98;6.75;;;24.70;99.90;;;;;;5013389;28;20077;-74
2022/08/31 01:13:43;;;;;;;9.48;5.05;;;24.80;99.90;;;;;;5013579;28;20041;-75
2022/08/31 01:16:17;;;;;;;7.80;6.32;;;24.80;99.90;;;;;;5013607;28;20048;-74
2022/08/31 01:18:46;;;;;;;8.68;6.70;;;24.80;99.90;;;;;;5013752;28;20075;-74
2022/08/31 01:21:16;;;;;;;8.80;5.80;;;24.90;99.90;;;;;;4997384;28;20442;-74
2022/08/31 01:23:45;;;;;;;9.80;6.30;;;24.90;99.90;;;;;;5013413;28;20088;-74
2022/08/31 01:26:16;;;;;;;7.97;5.88;;;24.80;99.90;;;;;;5013200;28;20053;-73
2022/08/31 01:28:46;;;;;;;8.90;6.38;;;24.80;99.90;;;;;;5013935;28;20052;-74
2022/08/31 01:31:22;;;;;;;9.50;5.75;;;24.80;99.90;;;;;;5029745;28;20045;-74
2022/08/31 01:33:50;;;;;;;7.60;5.28;;;24.80;99.90;;;;;;5029460;28;20046;-76
2022/08/31 01:36:18;;;;;;;9.75;6.43;;;24.70;99.90;;;;;;5012962;28;20053;-74
2022/08/31 01:38:47;;;;;;;14.98;6.68;;;24.70;99.90;;;;;;4996635;28;20049;-74
2022/08/31 01:41:15;;;;;;;8.75;5.65;;;24.60;99.90;;;;;;5012750;28;20041;-74
2022/08/31 01:43:43;;;;;;;10.75;6.30;;;24.60;99.90;;;;;;5029356;28;20053;-74
2022/08/31 01:46:12;;;;;;;10.98;6.57;;;24.60;99.90;;;;;;5013086;28;20059;-74
2022/08/31 01:48:43;;;;;;;8.85;6.45;;;24.60;99.90;;;;;;5035903;28;20036;-74
2022/08/31 01:51:12;;;;;;;10.10;6.05;;;24.50;99.90;;;;;;5049363;28;20049;-74
2022/08/31 01:53:44;;;;;;;8.73;5.70;;;24.50;99.90;;;;;;5049175;28;20124;-74
2022/08/31 01:56:16;;;;;;;18.60;6.43;;;24.40;99.90;;;;;;5049222;28;20053;-75
2022/08/31 01:58:43;;;;;;;10.63;5.45;;;24.40;99.90;;;;;;5016671;28;20151;-75
2022/08/31 02:01:37;;;;;;;8.73;5.85;;;24.30;99.90;;;;;;5030625;28;20081;-74
2022/08/31 02:04:07;;;;;;;7.60;5.45;;;24.30;99.90;;;;;;5049298;28;20434;-75
2022/08/31 02:06:36;;;;;;;11.07;6.20;;;24.30;99.90;;;;;;5032873;28;20080;-75
2022/08/31 02:09:06;;;;;;;8.20;5.55;;;24.20;99.90;;;;;;5032350;28;20052;-74
2022/08/31 02:11:35;;;;;;;11.38;6.93;;;24.20;99.90;;;;;;5032598;28;20672;-74
2022/08/31 02:14:04;;;;;;;9.35;6.97;;;24.20;99.90;;;;;;5049165;28;20498;-74
2022/08/31 02:16:31;;;;;;;8.82;5.57;;;24.20;99.90;;;;;;5032707;28;20053;-73
2022/08/31 02:18:59;;;;;;;9.50;5.68;;;24.10;99.90;;;;;;5050222;28;20094;-74
2022/08/31 02:21:27;;;;;;;8.95;6.30;;;24.10;99.90;;;;;;5049302;28;20049;-74
2022/08/31 02:23:57;;;;;;;9.15;5.75;;;24.10;99.90;;;;;;5049118;28;20041;-74
2022/08/31 02:26:25;;;;;;;10.52;6.75;;;24.00;99.90;;;;;;5032387;28;20147;-74
2022/08/31 02:28:53;;;;;;;8.20;5.07;;;24.00;99.90;;;;;;5049183;28;20045;-73
2022/08/31 02:31:20;;;;;;;11.57;6.57;;;24.00;99.90;;;;;;5032274;28;20120;-74
2022/08/31 02:33:56;;;;;;;11.10;5.75;;;24.00;99.90;;;;;;5049024;28;20828;-73
2022/08/31 02:36:24;;;;;;;11.23;6.50;;;24.00;99.90;;;;;;5048785;28;20446;-74
2022/08/31 02:38:52;;;;;;;8.73;6.18;;;24.00;99.90;;;;;;5032676;28;20052;-74
2022/08/31 02:41:20;;;;;;;7.90;5.80;;;24.00;99.90;;;;;;5045066;28;20055;-74
2022/08/31 02:43:48;;;;;;;8.05;5.75;;;24.00;99.90;;;;;;5048710;28;20049;-73
2022/08/31 02:46:16;;;;;;;10.07;6.32;;;24.00;99.90;;;;;;5032237;28;20582;-74
2022/08/31 02:48:53;;;;;;;13.15;6.25;;;24.00;99.90;;;;;;5048682;28;20033;-74
2022/08/31 02:51:21;;;;;;;8.38;5.88;;;24.00;99.90;;;;;;5050791;28;20094;-74
2022/08/31 02:53:49;;;;;;;10.55;6.32;;;24.00;99.90;;;;;;5053558;28;20487;-74
2022/08/31 02:56:17;;;;;;;8.23;5.72;;;24.00;99.90;;;;;;5053821;28;20049;-74
2022/08/31 02:58:45;;;;;;;13.95;6.15;;;24.00;99.90;;;;;;5035803;28;20120;-73
2022/08/31 03:01:12;;;;;;;7.80;5.85;;;24.00;99.90;;;;;;5015897;28;20569;-74
2022/08/31 03:03:40;;;;;;;9.73;6.05;;;24.00;99.90;;;;;;5052339;28;20134;-74
2022/08/31 03:06:07;;;;;;;8.07;5.32;;;23.90;99.90;;;;;;5035850;28;20076;-74
2022/08/31 03:08:35;;;;;;;9.35;6.25;;;24.00;99.90;;;;;;5035530;28;20053;-73
2022/08/31 03:11:03;;;;;;;12.40;5.70;;;24.00;99.90;;;;;;5052179;28;20045;-74
2022/08/31 03:13:30;;;;;;;10.98;5.55;;;23.90;99.90;;;;;;5052012;28;20056;-73
2022/08/31 03:15:58;;;;;;;11.15;6.20;;;23.90;99.90;;;;;;5035429;28;20049;-74
2022/08/31 03:18:25;;;;;;;11.75;6.10;;;23.90;99.90;;;;;;5052040;28;20570;-74
2022/08/31 03:20:54;;;;;;;8.90;5.15;;;23.90;99.90;;;;;;5052012;28;20079;-74
2022/08/31 03:23:21;;;;;;;8.20;6.28;;;23.80;99.90;;;;;;5051950;28;20064;-74
2022/08/31 03:25:49;;;;;;;8.70;5.95;;;23.80;99.90;;;;;;5034730;28;20495;-74
2022/08/31 03:28:17;;;;;;;8.80;5.40;;;23.80;99.90;;;;;;5018926;28;20538;-74
2022/08/31 03:31:04;;;;;;;7.15;5.07;;;23.80;99.90;;;;;;5051926;28;20041;-74
2022/08/31 03:33:32;;;;;;;8.30;5.20;;;23.80;99.90;;;;;;5034770;28;20045;-74
2022/08/31 03:36:01;;;;;;;8.02;5.55;;;23.80;99.90;;;;;;5051368;28;20068;-74
2022/08/31 03:38:29;;;;;;;11.63;5.85;;;23.80;99.90;;;;;;5049551;28;20048;-74
2022/08/31 03:40:57;;;;;;;8.27;6.10;;;23.70;99.90;;;;;;5035061;28;20048;-75
2022/08/31 03:43:25;;;;;;;10.20;5.45;;;23.70;99.90;;;;;;5051700;28;20120;-74
2022/08/31 03:45:53;;;;;;;7.05;5.45;;;23.70;99.90;;;;;;5034779;28;20140;-74
2022/08/31 03:48:21;;;;;;;8.82;5.80;;;23.70;99.90;;;;;;5051404;28;20056;-74
2022/08/31 03:50:49;;;;;;;9.00;5.90;;;23.70;99.90;;;;;;5018654;28;20139;-74
2022/08/31 03:53:22;;;;;;;9.07;5.53;;;23.70;99.90;;;;;;5051440;28;20513;-74
2022/08/31 03:56:02;;;;;;;10.00;5.43;;;23.70;99.90;;;;;;5050984;28;20049;-74
2022/08/31 03:58:33;;;;;;;7.05;4.65;;;23.70;99.90;;;;;;5035151;28;20045;-74
2022/08/31 04:01:01;;;;;;;8.60;5.30;;;23.70;99.90;;;;;;5034526;28;20049;-74
2022/08/31 04:03:49;;;;;;;8.07;4.30;;;23.70;99.90;;;;;;5051177;28;20048;-74
2022/08/31 04:06:35;;;;;;;7.57;5.00;;;23.70;99.90;;;;;;5037478;28;20119;-74
2022/08/31 04:09:22;;;;;;;5.70;4.03;;;23.70;99.90;;;;;;5052445;28;20126;-74
2022/08/31 04:12:08;;;;;;;;;;;23.70;99.90;;;;;;5037683;28;20057;-74
2022/08/31 04:14:56;;;;;;;9.73;4.60;;;23.70;99.90;;;;;;5050691;28;19921;-74
2022/08/31 04:17:46;;;;;;;8.05;5.07;;;23.70;99.90;;;;;;5036977;28;20052;-74
2022/08/31 04:20:39;;;;;;;7.78;4.97;;;23.80;99.90;;;;;;5050884;28;20103;-74
2022/08/31 04:23:07;;;;;;;10.90;5.55;;;23.80;99.90;;;;;;5049832;28;20041;-75
2022/08/31 04:25:41;;;;;;;7.85;4.70;;;23.80;99.90;;;;;;5030787;28;20041;-74
2022/08/31 04:28:09;;;;;;;8.43;4.55;;;23.80;99.90;;;;;;5030869;28;20128;-74
2022/08/31 04:30:41;;;;;;;6.97;4.53;;;23.80;99.90;;;;;;4998012;28;20049;-74
2022/08/31 04:33:10;;;;;;;7.90;4.80;;;23.80;99.90;;;;;;5030871;28;20095;-74
2022/08/31 04:35:40;;;;;;;9.07;4.93;;;23.80;99.90;;;;;;5030394;28;20115;-74
2022/08/31 04:38:09;;;;;;;9.25;4.95;;;23.90;99.90;;;;;;4998134;28;20569;-74
2022/08/31 04:40:38;;;;;;;7.75;4.72;;;23.90;99.90;;;;;;4997929;28;20504;-74
2022/08/31 04:43:06;;;;;;;7.10;4.75;;;23.90;99.90;;;;;;4998126;28;20148;-74
2022/08/31 04:45:39;;;;;;;7.07;4.88;;;24.00;99.90;;;;;;5030502;28;20049;-74
2022/08/31 04:48:06;;;;;;;8.05;4.82;;;24.10;99.90;;;;;;5014196;28;20546;-74
2022/08/31 04:50:35;;;;;;;6.85;5.47;;;24.20;99.90;;;;;;5014304;28;20050;-74
2022/08/31 04:53:07;;;;;;;8.48;4.35;;;24.30;99.90;;;;;;5030518;28;20048;-74
2022/08/31 04:55:39;;;;;;;8.02;4.55;;;24.40;99.90;;;;;;5030015;28;20080;-74
2022/08/31 04:58:11;;;;;;;6.88;4.47;;;24.50;99.90;;;;;;4998264;28;20119;-74
2022/08/31 05:00:42;;;;;;;7.18;4.25;;;24.60;99.90;;;;;;5031438;28;20495;-74
2022/08/31 05:03:33;;;;;;;5.80;4.75;;;24.80;99.90;;;;;;5029976;28;20512;-74
2022/08/31 05:06:00;;;;;;;7.00;4.18;;;24.90;99.90;;;;;;5013724;28;20054;-73
2022/08/31 05:08:29;;;;;;;5.65;4.18;;;25.10;99.90;;;;;;5030154;28;20041;-74
2022/08/31 05:10:58;;;;;;;8.05;4.25;;;25.20;99.90;;;;;;4997337;28;20132;-74
2022/08/31 05:13:25;;;;;;;7.00;4.10;;;25.30;99.90;;;;;;5029928;28;20041;-74
2022/08/31 05:15:54;;;;;;;8.18;4.43;;;25.50;99.90;;;;;;5013324;28;20059;-74
2022/08/31 05:18:24;;;;;;;6.50;3.97;;;25.60;99.90;;;;;;5031103;28;20120;-74
2022/08/31 05:20:57;;;;;;;6.83;4.13;;;25.80;99.90;;;;;;5014505;28;20057;-75
2022/08/31 05:23:25;;;;;;;8.75;4.07;;;25.90;99.90;;;;;;5029980;28;20490;-74
2022/08/31 05:25:53;;;;;;;8.38;4.40;;;26.10;99.90;;;;;;5029629;28;20068;-73
2022/08/31 05:28:22;;;;;;;7.63;3.88;;;26.20;99.90;;;;;;4997429;28;20065;-74
2022/08/31 05:30:50;;;;;;;5.65;3.85;;;26.40;99.90;;;;;;5013417;28;20132;-74
2022/08/31 05:33:34;;;;;;;4.88;3.83;;;26.50;99.90;;;;;;5013485;28;20050;-74
2022/08/31 05:36:02;;;;;;;6.60;4.10;;;26.60;99.90;;;;;;5029567;28;20060;-73
2022/08/31 05:38:30;;;;;;;6.75;4.55;;;26.70;99.90;;;;;;5029462;28;20072;-74
2022/08/31 05:40:58;;;;;;;5.93;3.65;;;26.90;99.90;;;;;;4997066;28;20049;-73
2022/08/31 05:43:27;;;;;;;5.45;3.47;;;27.00;99.90;;;;;;5013412;28;20124;-73
2022/08/31 05:45:55;;;;;;;6.57;4.13;;;27.10;99.90;;;;;;4996824;28;20525;-74
2022/08/31 05:48:23;;;;;;;6.70;4.35;;;27.20;99.90;;;;;;5013210;28;20120;-74
2022/08/31 05:50:51;;;;;;;7.93;4.63;;;27.30;99.90;;;;;;5029261;28;20570;-74
2022/08/31 05:53:19;;;;;;;8.32;4.43;;;27.40;99.90;;;;;;5012863;28;20041;-73
2022/08/31 05:55:47;;;;;;;6.07;4.38;;;27.60;99.90;;;;;;4996835;28;20045;-74
2022/08/31 05:58:14;;;;;;;8.52;3.67;;;27.60;99.90;;;;;;5029318;28;20041;-74
2022/08/31 06:00:43;;;;;;;8.25;3.92;;;27.70;99.90;;;;;;5014423;28;20071;-73
2022/08/31 06:03:43;;;;;;;7.35;4.57;;;27.80;99.90;;;;;;5030237;28;20041;-74
2022/08/31 06:06:11;;;;;;;15.63;4.47;;;28.00;99.90;;;;;;5029277;28;20495;-73
2022/08/31 06:08:40;;;;;;;6.65;4.75;;;28.00;99.90;;;;;;5012656;28;20057;-72
2022/08/31 06:11:13;;;;;;;5.82;3.88;;;28.20;99.90;;;;;;5029192;28;20495;-74
2022/08/31 06:13:43;;;;;;;5.65;3.90;;;28.30;99.90;;;;;;5029183;28;20048;-74
2022/08/31 06:16:12;;;;;;;8.50;4.20;;;28.40;99.90;;;;;;5030524;28;20049;-73
2022/08/31 06:18:41;;;;;;;5.97;3.83;;;28.50;99.90;;;;;;5013047;28;20049;-73
2022/08/31 06:21:11;;;;;;;5.82;3.97;;;28.70;99.90;;;;;;5029338;28;20124;-74
2022/08/31 06:23:41;;;;;;;8.27;4.03;;;28.80;99.90;;;;;;5028887;28;20049;-73
2022/08/31 06:26:11;;;;;;;6.13;3.85;;;28.90;99.90;;;;;;5030823;28;20442;-74
2022/08/31 06:28:44;;;;;;;7.32;3.78;;;29.00;99.90;;;;;;5016676;28;20061;-74
2022/08/31 06:31:15;;;;;;;8.73;4.07;;;29.10;99.90;;;;;;5000455;28;20091;-73
2022/08/31 06:33:43;;;;;;;6.72;3.90;;;29.20;99.90;;;;;;5016140;28;20060;-73
2022/08/31 06:36:18;;;;;;;7.57;4.95;;;29.30;99.90;;;;;;5032696;28;20061;-74
2022/08/31 06:38:59;;;;;;;6.47;3.63;;;29.40;99.90;;;;;;5016643;28;20049;-73
2022/08/31 06:41:51;;;;;;;6.50;3.83;;;29.50;99.90;;;;;;5032993;28;20088;-73
2022/08/31 06:44:31;;;;;;;6.38;4.05;;;29.50;99.90;;;;;;5016711;28;20084;-73
2022/08/31 06:47:18;;;;;;;7.07;3.70;;;29.50;99.90;;;;;;5016193;28;20045;-73
2022/08/31 06:49:49;;;;;;;6.38;2.90;;;29.60;99.90;;;;;;5016128;28;20388;-73
2022/08/31 06:52:17;;;;;;;4.93;2.90;;;29.70;99.90;;;;;;5032517;28;20038;-73
2022/08/31 06:54:51;;;;;;;7.65;3.25;;;29.70;99.90;;;;;;5000808;28;20133;-73
2022/08/31 06:57:37;;;;;;;8.10;3.00;;;29.80;99.90;;;;;;5033727;28;20033;-73
2022/08/31 07:00:25;;;;;;;6.05;3.20;;;30.00;99.90;;;;;;5032518;28;20049;-73
2022/08/31 07:03:34;;;;;;;6.97;3.40;;;30.00;99.90;;;;;;5014794;28;20410;-75
2022/08/31 07:06:07;;;;;;;5.85;3.10;;;30.20;99.90;;;;;;5033389;28;20046;-73
2022/08/31 07:08:37;;;;;;;4.15;3.03;;;30.00;99.90;;;;;;5015912;28;20058;-73
2022/08/31 07:11:14;;;;;;;6.32;3.55;;;29.80;99.90;;;;;;5015673;28;20504;-73
2022/08/31 07:13:44;;;;;;;5.00;3.45;;;29.50;99.90;;;;;;5015557;28;20136;-73
2022/08/31 07:16:16;;;;;;;4.10;2.67;;;29.30;99.90;;;;;;5015691;28;20046;-73
2022/08/31 07:18:44;;;;;;;4.45;2.58;;;29.20;99.90;;;;;;5045418;28;20533;-73
2022/08/31 07:21:15;;;;;;;5.22;3.20;;;29.20;99.90;;;;;;5052258;28;20034;-73
2022/08/31 07:23:44;;;;;;;4.28;2.40;;;29.10;99.90;;;;;;5061175;28;20056;-73
2022/08/31 07:26:21;;;;;;;4.47;3.17;;;29.10;99.90;;;;;;5043271;28;20045;-73
2022/08/31 07:28:52;;;;;;;11.23;3.40;;;29.30;99.90;;;;;;5043850;28;20045;-74
2022/08/31 07:31:22;;;;;;;6.30;2.75;;;29.50;99.90;;;;;;5043705;28;20042;-73
2022/08/31 07:33:52;;;;;;;4.60;2.30;;;29.70;99.90;;;;;;5062071;28;20037;-73
2022/08/31 07:36:23;;;;;;;5.45;2.72;;;29.90;99.90;;;;;;5044163;28;20067;-74
2022/08/31 07:44:28;;;;;;;4.35;2.83;;;30.80;99.90;;;;;;5041347;28;20045;-74
2022/08/31 07:46:58;;;;;;;4.57;3.28;;;30.90;99.90;;;;;;5038675;28;20049;-75
2022/08/31 07:49:26;;;;;;;5.75;2.67;;;31.20;99.90;;;;;;5045395;28;20044;-76
2022/08/31 07:52:20;;;;;;;4.32;2.05;;;31.30;99.80;;;;;;5061451;28;20090;-73
2022/08/31 07:55:08;;;;;;;4.22;3.28;;;31.40;99.10;;;;;;5053284;28;20817;-73
2022/08/31 07:58:14;;;;;;;6.90;3.00;;;31.30;98.90;;;;;;5039297;28;20061;-73
2022/08/31 08:00:46;;;;;;;6.78;2.88;;;31.20;98.90;;;;;;5016821;28;20037;-73
2022/08/31 08:03:14;;;;;;;6.88;2.90;;;31.30;99.10;;;;;;5014769;28;20569;-74
2022/08/31 08:06:11;;;;;;;4.45;2.60;;;31.20;98.90;;;;;;5017850;28;20049;-74
2022/08/31 08:09:04;;;;;;;4.30;2.65;;;31.30;98.70;;;;;;5031086;28;20084;-73
2022/08/31 08:12:03;;;;;;;13.27;3.75;;;31.40;98.40;;;;;;5031341;28;20045;-74
2022/08/31 08:14:53;;;;;;;4.38;2.90;;;31.40;98.70;;;;;;5032177;28;20046;-73
2022/08/31 08:17:35;;;;;;;8.43;3.30;;;31.40;98.40;;;;;;5014045;28;20053;-73
2022/08/31 08:20:07;;;;;;;4.80;3.20;;;31.60;98.10;;;;;;5014682;28;20404;-75
2022/08/31 08:22:39;;;;;;;6.63;3.00;;;31.70;98.10;;;;;;5030978;28;20103;-73
2022/08/31 08:25:29;;;;;;;5.32;3.70;;;31.70;98.10;;;;;;5030837;28;20054;-73
2022/08/31 08:28:20;;;;;;;4.90;3.30;;;31.90;98.00;;;;;;5001023;28;20452;-74
2022/08/31 08:31:05;;;;;;;3.75;2.22;;;31.80;97.40;;;;;;5016677;28;20049;-73
2022/08/31 08:33:34;;;;;;;4.93;2.90;;;31.80;96.90;;;;;;5014352;28;20045;-73
2022/08/31 08:36:06;;;;;;;5.07;2.80;;;31.70;97.30;;;;;;5013822;28;20144;-73
2022/08/31 08:38:38;;;;;;;7.53;2.90;;;31.70;97.80;;;;;;5031769;28;20046;-73
2022/08/31 08:41:20;;;;;;;5.05;3.00;;;31.70;97.90;;;;;;5030460;28;20124;-74
2022/08/31 08:43:51;;;;;;;3.85;2.42;;;31.40;97.80;;;;;;5030095;28;20130;-74
2022/08/31 08:46:26;;;;;;;4.28;3.20;;;31.30;98.00;;;;;;5030364;28;20041;-74
2022/08/31 08:49:24;;;;;;;5.65;3.38;;;31.10;98.00;;;;;;5030017;28;20084;-74
2022/08/31 08:51:58;;;;;;;4.00;2.90;;;31.20;98.00;;;;;;5029939;28;20037;-73
2022/08/31 08:54:37;;;;;;;4.40;2.85;;;31.20;97.80;;;;;;5021198;28;20506;-73
2022/08/31 08:57:23;;;;;;;5.60;3.03;;;31.30;97.90;;;;;;5033405;28;20045;-73
2022/08/31 08:59:56;;;;;;;5.40;3.13;;;31.50;98.00;;;;;;5049733;28;20790;-74
2022/08/31 09:02:48;;;;;;;6.07;2.85;;;31.60;97.80;;;;;;5033254;28;20504;-74
2022/08/31 09:05:31;;;;;;;5.60;3.30;;;31.60;97.70;;;;;;5033084;28;20525;-73
2022/08/31 09:08:47;;;;;;;4.78;2.88;;;31.70;97.60;;;;;;5033011;28;20045;-73
2022/08/31 09:11:16;;;;;;;6.57;3.50;;;31.70;97.40;;;;;;5049682;28;20114;-73
2022/08/31 09:14:18;;;;;;;5.45;2.70;;;31.70;97.10;;;;;;5033118;28;20041;-74
2022/08/31 09:17:01;;;;;;;5.07;3.03;;;31.90;96.50;;;;;;5032301;28;20399;-74
2022/08/31 09:19:57;;;;;;;4.35;3.15;;;32.00;96.30;;;;;;5032355;28;20056;-74
2022/08/31 09:22:17;;;;;;;4.45;3.17;;;32.00;96.20;;;;;;5032432;28;20055;-73
2022/08/31 09:24:51;;;;;;;4.82;2.90;;;32.00;95.50;;;;;;5049031;28;20110;-74
2022/08/31 09:27:56;;;;;;;7.90;3.25;;;32.00;95.50;;;;;;5049120;28;20037;-74
2022/08/31 09:30:36;;;;;;;4.57;3.17;;;32.00;96.00;;;;;;5033278;28;20063;-75
2022/08/31 09:33:04;;;;;;;4.07;2.58;;;31.90;96.50;;;;;;5049138;28;20450;-73
2022/08/31 09:35:39;;;;;;;4.85;2.95;;;31.80;96.60;;;;;;5048423;28;20513;-73
2022/08/31 09:38:24;;;;;;;5.95;3.70;;;31.70;96.10;;;;;;5032875;28;20453;-73
2022/08/31 09:40:51;;;;;;;6.68;2.95;;;31.90;96.40;;;;;;5048972;28;20052;-73
2022/08/31 09:43:23;;;;;;;3.95;2.78;;;32.00;95.90;;;;;;5032266;28;20139;-73
2022/08/31 09:46:10;;;;;;;3.70;2.90;;;32.20;95.60;;;;;;5046287;28;20049;-73
2022/08/31 09:48:50;;;;;;;5.13;2.88;;;32.20;95.20;;;;;;5032241;28;20060;-74
2022/08/31 09:51:29;;;;;;;7.03;3.28;;;32.20;95.10;;;;;;5050110;28;20680;-73
2022/08/31 09:57:08;;;;;;;5.38;2.30;;;32.00;94.40;;;;;;5032201;28;20589;-73
2022/08/31 09:59:46;;;;;;;3.75;2.60;;;32.00;93.60;;;;;;5032247;28;20059;-73
2022/08/31 10:02:25;;;;;;;6.68;2.88;;;32.00;94.20;;;;;;5032392;28;20415;-73
2022/08/31 10:04:57;;;;;;;5.32;3.42;;;32.00;94.50;;;;;;5032758;28;20053;-74
2022/08/31 10:07:55;;;;;;;5.40;3.05;;;32.20;94.20;;;;;;5048730;28;20041;-77
2022/08/31 10:10:38;;;;;;;4.15;2.65;;;32.20;93.90;;;;;;5046188;28;20060;-75
2022/08/31 10:13:33;;;;;;;4.63;2.65;;;32.20;93.90;;;;;;5048718;28;20060;-73
2022/08/31 10:16:24;;;;;;;5.07;2.60;;;32.30;93.60;;;;;;5048927;28;20064;-73
2022/08/31 10:19:06;;;;;;;4.03;2.80;;;32.30;93.70;;;;;;5050293;28;20047;-74
2022/08/31 10:21:43;;;;;;;5.70;2.92;;;32.30;93.80;;;;;;5048720;28;20049;-73
2022/08/31 10:24:31;;;;;;;5.43;2.75;;;32.30;93.60;;;;;;5048664;28;20049;-73
2022/08/31 10:27:18;;;;;;;4.93;2.55;;;32.30;93.70;;;;;;5048560;28;20491;-73
2022/08/31 10:29:59;;;;;;;5.75;2.50;;;32.00;93.00;;;;;;5015553;28;20049;-73
2022/08/31 10:32:55;;;;;;;3.50;2.55;;;32.10;93.30;;;;;;5031942;28;20136;-74
2022/08/31 10:35:36;;;;;;;5.57;3.03;;;32.00;93.30;;;;;;5048933;28;20107;-73
2022/08/31 10:38:22;;;;;;;4.70;2.88;;;32.00;93.40;;;;;;5048789;28;20078;-74
2022/08/31 10:41:12;;;;;;;4.50;2.80;;;32.00;93.50;;;;;;5048519;28;20152;-73
2022/08/31 10:44:07;;;;;;;4.88;2.75;;;32.10;93.40;;;;;;5048089;28;20037;-73
2022/08/31 10:46:34;;;;;;;3.92;2.70;;;32.10;93.50;;;;;;5029897;28;20041;-73
2022/08/31 10:49:04;;;;;;;7.05;2.55;;;32.20;93.10;;;;;;5048480;28;20057;-73
2022/08/31 10:51:41;;;;;;;3.72;3.03;;;32.30;92.90;;;;;;5031580;28;20045;-73
2022/08/31 10:54:39;;;;;;;6.13;2.58;;;32.30;92.20;;;;;;5048399;28;20049;-74
2022/08/31 10:57:38;;;;;;;5.47;2.53;;;32.30;92.70;;;;;;5048086;28;20396;-73
2022/08/31 11:00:40;;;;;;;4.97;2.83;;;32.30;92.90;;;;;;5048544;28;20041;-73
2022/08/31 11:03:12;;;;;;;6.28;3.00;;;32.30;92.80;;;;;;5048682;28;20705;-73
2022/08/31 11:06:15;;;;;;;4.93;3.28;;;32.20;92.70;;;;;;5048511;28;20045;-73
2022/08/31 11:09:14;;;;;;;4.88;2.85;;;32.20;92.20;;;;;;5032016;28;20049;-74
2022/08/31 11:12:06;;;;;;;3.67;2.55;;;32.20;92.40;;;;;;5015522;28;20053;-73
2022/08/31 11:14:52;;;;;;;8.02;3.05;;;32.10;92.30;;;;;;5035658;28;20037;-74
2022/08/31 11:17:54;;;;;;;3.97;2.50;;;32.10;92.60;;;;;;5052356;28;20037;-73
2022/08/31 11:20:31;;;;;;;6.00;2.90;;;32.00;92.40;;;;;;5053374;28;20045;-73
2022/08/31 11:23:31;;;;;;;4.43;2.20;;;31.90;92.30;;;;;;5052080;28;20045;-73
2022/08/31 11:26:18;;;;;;;3.33;2.00;;;32.00;92.10;;;;;;5035090;28;20053;-73
2022/08/31 11:28:51;;;;;;;4.18;2.70;;;32.00;91.80;;;;;;5049558;28;20380;-73
2022/08/31 11:31:26;;;;;;;5.15;3.05;;;32.00;92.20;;;;;;5035371;28;20080;-73
2022/08/31 11:33:59;;;;;;;4.30;2.60;;;32.10;92.60;;;;;;5035567;28;20144;-74
2022/08/31 11:36:50;;;;;;;4.53;2.80;;;32.00;92.40;;;;;;5037023;28;20053;-74
2022/08/31 11:39:43;;;;;;;5.43;3.08;;;32.00;91.80;;;;;;5051784;28;20439;-74
2022/08/31 11:42:26;;;;;;;7.65;3.40;;;32.00;92.00;;;;;;5051604;28;20414;-73
2022/08/31 11:45:18;;;;;;;4.97;2.60;;;31.90;92.10;;;;;;5034904;28;20139;-74
2022/08/31 11:47:46;;;;;;;6.18;3.55;;;31.90;92.00;;;;;;5051463;28;20048;-74
2022/08/31 11:50:36;;;;;;;5.53;3.25;;;31.90;92.10;;;;;;5051496;28;20091;-73
2022/08/31 11:53:30;;;;;;;6.00;3.00;;;31.90;91.70;;;;;;5051338;28;20044;-73
2022/08/31 11:55:59;;;;;;;4.57;3.05;;;31.90;91.30;;;;;;5051326;28;20037;-74
2022/08/31 11:58:32;;;;;;;6.68;3.13;;;31.80;92.70;;;;;;5042334;28;20132;-73
2022/08/31 12:01:11;;;;;;;4.07;2.50;;;31.70;92.60;;;;;;5029268;28;20148;-74
2022/08/31 12:03:51;;;;;;;6.20;3.17;;;31.70;93.20;;;;;;5004344;28;20061;-74
2022/08/31 12:06:26;;;;;;;5.50;2.72;;;31.80;93.10;;;;;;5012757;28;20402;-74
2022/08/31 12:09:10;;;;;;;9.02;3.33;;;31.60;93.70;;;;;;5021169;28;20148;-73
2022/08/31 12:12:06;;;;;;;5.47;3.10;;;31.60;93.80;;;;;;5031785;28;20144;-73
2022/08/31 12:14:33;;;;;;;5.72;2.97;;;31.50;93.10;;;;;;5031360;28;20526;-73
2022/08/31 12:17:15;;;;;;;3.42;2.30;;;31.40;92.80;;;;;;5030513;28;20041;-73
2022/08/31 12:20:05;;;;;;;4.22;2.45;;;31.20;93.10;;;;;;5041204;28;20045;-74
2022/08/31 12:26:07;;;;;;;4.80;2.83;;;31.00;93.90;;;;;;5030649;28;20337;-73
2022/08/31 12:28:34;;;;;;;;;;;30.90;93.70;;;;;;5046433;28;20071;-73
2022/08/31 12:31:06;;;;;;;6.90;3.33;;;31.00;94.00;;;;;;5030969;28;19931;-73
2022/08/31 12:33:42;;;;;;;6.45;3.22;;;31.00;94.00;;;;;;5034683;28;20103;-74
2022/08/31 12:36:14;;;;;;;3.58;2.45;;;31.10;94.20;;;;;;5008790;28;20049;-73
2022/08/31 12:38:43;;;;;;;3.72;2.97;;;31.10;94.20;;;;;;5033004;28;20052;-75
2022/08/31 12:41:13;;;;;;;4.45;2.88;;;31.00;94.30;;;;;;5016796;28;20045;-73
2022/08/31 12:43:48;;;;;;;3.67;2.67;;;31.00;94.00;;;;;;5044362;28;20550;-73
2022/08/31 12:46:21;;;;;;;;;;;31.00;94.00;;;;;;5031371;28;20099;-72
2022/08/31 12:49:06;;;;;;;4.60;3.10;;;30.90;93.90;;;;;;5021127;28;19927;-73
2022/08/31 12:52:06;;;;;;;6.45;2.92;;;30.90;93.40;;;;;;5035419;28;20106;-73
2022/08/31 12:54:36;;;;;;;4.85;2.83;;;30.90;93.60;;;;;;5022929;28;20055;-73
2022/08/31 12:57:22;;;;;;;6.38;2.88;;;30.70;93.00;;;;;;5034268;28;20171;-73
2022/08/31 13:00:08;;;;;;;5.50;2.65;;;30.70;93.20;;;;;;5033596;28;20099;-74
2022/08/31 13:02:40;;;;;;;;;;;30.60;93.70;;;;;;5044335;28;20439;-73
2022/08/31 13:05:20;;;;;;;4.00;2.38;;;30.60;94.00;;;;;;5030260;28;20341;-73
2022/08/31 13:07:51;;;;;;;3.47;2.17;;;30.70;94.20;;;;;;5019354;28;20073;-73
2022/08/31 13:10:36;;;;;;;6.70;2.50;;;30.70;93.90;;;;;;5040321;28;20056;-73
2022/08/31 13:13:18;;;;;;;3.58;2.60;;;30.70;93.70;;;;;;5035397;28;20049;-73
2022/08/31 13:15:48;;;;;;;4.45;2.80;;;30.70;93.90;;;;;;5039782;28;20094;-73
2022/08/31 13:18:22;;;;;;;5.72;2.63;;;30.70;93.90;;;;;;5038918;28;20045;-73
2022/08/31 13:20:55;;;;;;;3.75;2.58;;;30.60;94.00;;;;;;5031441;28;20053;-73
2022/08/31 13:23:29;;;;;;;3.72;2.50;;;30.50;93.60;;;;;;5025493;28;20594;-73
2022/08/31 13:26:03;;;;;;;4.10;2.80;;;30.50;93.90;;;;;;5041518;28;20045;-73
2022/08/31 13:28:33;;;;;;;5.78;3.05;;;30.50;93.50;;;;;;5035653;28;20053;-73
2022/08/31 13:31:10;;;;;;;4.53;3.30;;;30.40;93.40;;;;;;5013968;28;20067;-71
2022/08/31 13:33:39;;;;;;;6.15;3.28;;;30.50;93.00;;;;;;5012922;28;20220;-71
2022/08/31 13:36:15;;;;;;;6.70;2.92;;;30.50;93.40;;;;;;5026362;28;20523;-72
2022/08/31 13:38:49;;;;;;;4.38;2.70;;;30.50;93.70;;;;;;5013562;28;20053;-72
2022/08/31 13:41:28;;;;;;;3.78;2.75;;;30.50;93.60;;;;;;5013958;28;20049;-72
2022/08/31 13:44:00;;;;;;;6.88;2.90;;;30.50;93.90;;;;;;5029839;28;20072;-72
2022/08/31 13:46:38;;;;;;;4.80;2.50;;;30.40;93.90;;;;;;5029737;28;20064;-73
2022/08/31 13:49:34;;;;;;;6.70;3.22;;;30.30;94.00;;;;;;5013150;28;20052;-71